createdAt,value
2023-07-14T00:00:22.602Z,0.60
2023-07-14T00:02:51.663Z,0.60
2023-07-14T00:05:24.666Z,0.70
2023-07-14T00:07:52.097Z,0.70
2023-07-14T00:10:34.579Z,0.90
2023-07-14T00:13:05.777Z,0.70
2023-07-14T00:15:35.170Z,1.00
2023-07-14T00:18:12.232Z,0.60
2023-07-14T00:20:39.564Z,0.70
2023-07-14T00:23:12.824Z,0.80
2023-07-14T00:25:40.412Z,0.70
2023-07-14T00:28:25.931Z,0.70
2023-07-14T00:30:53.343Z,0.70
2023-07-14T00:33:20.753Z,0.90
2023-07-14T00:35:51.119Z,0.90
2023-07-14T00:38:18.530Z,0.70
2023-07-14T00:40:48.454Z,0.90
2023-07-14T00:43:18.711Z,0.90
2023-07-14T00:45:50.203Z,0.80
2023-07-14T00:48:20.047Z,0.70
2023-07-14T00:51:04.038Z,0.90
2023-07-14T00:53:39.791Z,0.90
2023-07-14T00:56:16.242Z,0.90
2023-07-14T00:58:50.663Z,0.70
2023-07-14T01:01:23.834Z,0.80
2023-07-14T01:03:53.012Z,0.80
2023-07-14T01:06:28.553Z,0.70
2023-07-14T01:09:02.071Z,0.80
2023-07-14T01:11:38.010Z,0.80
2023-07-14T01:14:08.115Z,0.80
2023-07-14T01:16:39.451Z,0.80
2023-07-14T01:19:10.940Z,0.80
2023-07-14T01:21:38.832Z,0.90
2023-07-14T01:24:20.041Z,1.30
2023-07-14T01:27:06.045Z,1.10
2023-07-14T01:29:33.989Z,0.90
2023-07-14T01:32:02.377Z,0.90
2023-07-14T01:34:29.644Z,0.90
2023-07-14T01:36:59.744Z,0.90
2023-07-14T01:39:28.162Z,1.10
2023-07-14T01:41:55.575Z,1.10
2023-07-14T01:44:23.212Z,1.00
2023-07-14T01:46:51.051Z,0.90
2023-07-14T01:49:40.393Z,0.90
2023-07-14T01:52:10.037Z,1.00
2023-07-14T01:54:40.353Z,1.10
2023-07-14T01:57:16.570Z,1.00
2023-07-14T01:59:47.404Z,1.10
2023-07-14T02:02:25.755Z,1.30
2023-07-14T02:04:53.160Z,1.30
2023-07-14T02:07:20.518Z,1.40
2023-07-14T02:09:48.872Z,1.10
2023-07-14T02:12:18.733Z,1.10
2023-07-14T02:15:06.889Z,1.40
2023-07-14T02:17:36.104Z,1.30
2023-07-14T02:20:07.450Z,1.10
2023-07-14T02:22:35.192Z,1.60
2023-07-14T02:25:05.323Z,1.70
2023-07-14T02:27:32.688Z,2.30
2023-07-14T02:31:57.506Z,2.30
2023-07-14T02:34:25.328Z,2.40
2023-07-14T02:37:42.416Z,2.80
2023-07-14T02:40:10.462Z,2.50
2023-07-14T02:42:39.136Z,2.60
2023-07-14T02:45:07.256Z,2.60
2023-07-14T02:47:36.908Z,3.10
2023-07-14T02:50:04.840Z,3.00
2023-07-14T02:52:32.115Z,3.00
2023-07-14T02:54:59.563Z,2.40
2023-07-14T02:57:26.832Z,3.20
2023-07-14T02:59:54.163Z,2.60
2023-07-14T03:02:22.319Z,2.30
2023-07-14T03:04:49.676Z,2.40
2023-07-14T03:07:17.101Z,2.30
2023-07-14T03:09:44.474Z,1.60
2023-07-14T03:12:12.012Z,1.90
2023-07-14T03:14:39.271Z,2.00
2023-07-14T03:17:06.770Z,1.50
2023-07-14T03:19:34.731Z,1.40
2023-07-14T03:22:01.997Z,1.90
2023-07-14T03:24:29.429Z,1.50
2023-07-14T03:26:56.700Z,2.10
2023-07-14T03:29:24.700Z,1.20
2023-07-14T03:31:52.155Z,1.40
2023-07-14T03:34:19.748Z,1.10
2023-07-14T03:36:47.055Z,1.30
2023-07-14T03:39:25.933Z,1.50
2023-07-14T03:41:54.216Z,1.50
2023-07-14T03:44:21.730Z,1.30
2023-07-14T03:46:49.130Z,1.60
2023-07-14T03:49:16.674Z,1.70
2023-07-14T03:51:44.076Z,2.00
2023-07-14T03:54:11.635Z,1.80
2023-07-14T03:56:39.029Z,1.80
2023-07-14T03:59:06.369Z,2.20
2023-07-14T04:01:34.198Z,1.80
2023-07-14T04:04:01.771Z,1.60
2023-07-14T04:06:32.252Z,2.10
2023-07-14T04:09:00.813Z,2.60
2023-07-14T04:11:34.810Z,2.60
2023-07-14T04:14:03.393Z,2.20
2023-07-14T04:16:30.746Z,2.30
2023-07-14T04:18:58.334Z,1.90
2023-07-14T04:21:26.075Z,2.40
2023-07-14T04:23:53.694Z,2.00
2023-07-14T04:26:21.536Z,2.40
2023-07-14T04:28:49.296Z,2.80
2023-07-14T04:31:16.869Z,2.50
2023-07-14T04:33:45.745Z,2.80
2023-07-14T04:36:14.038Z,2.20
2023-07-14T04:38:42.953Z,3.00
2023-07-14T04:41:13.270Z,2.50
2023-07-14T04:43:42.291Z,2.50
2023-07-14T04:46:12.674Z,2.30
2023-07-14T04:48:40.521Z,3.10
2023-07-14T04:51:08.210Z,2.60
2023-07-14T04:53:35.614Z,2.50
2023-07-14T04:56:02.890Z,2.20
2023-07-14T04:58:30.234Z,2.10
2023-07-14T05:00:57.498Z,2.70
2023-07-14T05:03:27.215Z,2.60
2023-07-14T05:05:54.754Z,3.10
2023-07-14T05:08:22.024Z,2.30
2023-07-14T05:10:49.296Z,2.70
2023-07-14T05:13:16.755Z,2.50
2023-07-14T05:15:48.056Z,2.80
2023-07-14T05:18:16.324Z,2.70
2023-07-14T05:20:45.227Z,2.20
2023-07-14T05:23:12.714Z,3.20
2023-07-14T05:25:40.498Z,2.60
2023-07-14T05:28:07.832Z,2.60
2023-07-14T05:30:35.097Z,1.90
2023-07-14T05:33:02.495Z,2.50
2023-07-14T05:35:29.953Z,2.50
2023-07-14T05:38:00.907Z,2.20
2023-07-14T05:40:31.224Z,2.30
2023-07-14T05:43:03.039Z,2.60
2023-07-14T05:45:30.301Z,2.10
2023-07-14T05:47:57.661Z,2.00
2023-07-14T05:50:25.783Z,2.20
2023-07-14T05:52:53.670Z,2.70
2023-07-14T05:55:21.035Z,2.50
2023-07-14T05:57:48.447Z,2.40
2023-07-14T06:00:18.050Z,2.30
2023-07-14T06:02:47.683Z,2.10
2023-07-14T06:05:15.806Z,2.00
2023-07-14T06:07:43.548Z,1.70
2023-07-14T06:10:11.830Z,2.10
2023-07-14T06:12:39.363Z,1.80
2023-07-14T06:15:07.377Z,1.80
2023-07-14T06:17:34.880Z,2.40
2023-07-14T06:20:02.224Z,2.00
2023-07-14T06:22:30.721Z,2.20
2023-07-14T06:24:58.409Z,1.80
2023-07-14T06:27:26.730Z,2.20
2023-07-14T06:29:54.010Z,2.00
2023-07-14T06:32:22.660Z,1.60
2023-07-14T06:34:50.465Z,1.40
2023-07-14T06:37:17.891Z,2.50
2023-07-14T06:39:45.176Z,1.50
2023-07-14T06:42:12.451Z,2.00
2023-07-14T06:44:39.706Z,1.60
2023-07-14T06:47:07.763Z,2.20
2023-07-14T06:49:36.217Z,2.40
2023-07-14T06:52:05.279Z,1.70
2023-07-14T06:54:32.721Z,1.50
2023-07-14T06:57:00.239Z,1.40
2023-07-14T06:59:27.569Z,1.90
2023-07-14T07:01:55.217Z,1.60
2023-07-14T07:04:22.619Z,2.00
2023-07-14T07:06:49.946Z,1.60
2023-07-14T07:09:17.233Z,1.50
2023-07-14T07:11:44.702Z,1.80
2023-07-14T07:14:12.026Z,1.80
2023-07-14T07:16:40.222Z,1.80
2023-07-14T07:19:07.539Z,1.60
2023-07-14T07:21:34.814Z,1.70
2023-07-14T07:24:05.265Z,1.20
2023-07-14T07:26:32.955Z,1.50
2023-07-14T07:29:00.472Z,1.60
2023-07-14T07:31:29.462Z,1.70
2023-07-14T07:33:57.198Z,1.30
2023-07-14T07:36:25.978Z,1.60
2023-07-14T07:38:53.460Z,1.20
2023-07-14T07:41:23.073Z,1.30
2023-07-14T07:43:50.552Z,1.40
2023-07-14T07:46:18.053Z,1.30
2023-07-14T07:48:46.304Z,1.40
2023-07-14T07:51:13.734Z,1.50
2023-07-14T07:53:41.742Z,1.40
2023-07-14T07:56:09.988Z,1.30
2023-07-14T07:58:37.800Z,1.50
2023-07-14T08:01:05.645Z,1.70
2023-07-14T08:03:34.587Z,1.30
2023-07-14T08:06:04.543Z,1.30
2023-07-14T08:08:32.411Z,1.50
2023-07-14T08:11:00.051Z,1.30
2023-07-14T08:13:30.944Z,1.10
2023-07-14T08:15:59.182Z,1.60
2023-07-14T08:18:26.840Z,1.40
2023-07-14T08:20:54.379Z,1.20
2023-07-14T08:23:22.910Z,1.50
2023-07-14T08:25:59.230Z,1.30
2023-07-14T08:28:26.924Z,1.20
2023-07-14T08:30:57.126Z,1.20
2023-07-14T08:33:24.872Z,1.10
2023-07-14T08:35:53.179Z,1.30
2023-07-14T08:38:21.282Z,1.10
2023-07-14T08:40:54.327Z,1.30
2023-07-14T08:43:43.339Z,1.20
2023-07-14T08:47:00.365Z,1.20
2023-07-14T08:49:32.883Z,1.10
2023-07-14T08:52:05.257Z,1.10
2023-07-14T08:54:42.523Z,1.40
2023-07-14T08:57:16.787Z,1.40
2023-07-14T08:59:44.216Z,1.20
2023-07-14T09:02:24.754Z,1.10
2023-07-14T09:05:40.378Z,1.20
2023-07-14T09:08:10.554Z,1.10
2023-07-14T09:10:40.939Z,1.00
2023-07-14T09:13:16.222Z,1.00
2023-07-14T09:15:43.900Z,0.90
2023-07-14T09:18:39.699Z,1.00
2023-07-14T09:21:17.313Z,0.90
2023-07-14T09:23:54.520Z,0.70
2023-07-14T09:26:33.361Z,0.80
2023-07-14T09:29:07.534Z,1.10
2023-07-14T09:31:56.100Z,0.80
2023-07-14T09:34:40.747Z,0.90
2023-07-14T09:37:22.837Z,0.70
2023-07-14T09:40:03.413Z,0.70
2023-07-14T09:42:33.958Z,0.80
2023-07-14T09:45:10.613Z,0.70
2023-07-14T09:47:38.345Z,0.70
2023-07-14T09:50:06.389Z,0.60
2023-07-14T09:52:33.746Z,0.60
2023-07-14T09:55:01.194Z,0.50
2023-07-14T09:57:39.401Z,0.70
2023-07-14T10:00:30.183Z,0.50
2023-07-14T10:03:03.735Z,0.60
2023-07-14T10:05:37.928Z,0.50
2023-07-14T10:10:35.478Z,0.50
2023-07-14T10:13:16.453Z,0.60
2023-07-14T10:15:43.871Z,0.60
2023-07-14T10:18:14.811Z,0.50
2023-07-14T10:20:43.677Z,0.60
2023-07-14T10:23:15.278Z,0.50
2023-07-14T10:25:47.761Z,2.70
2023-07-14T10:28:16.725Z,0.80
2023-07-14T10:31:04.768Z,0.90
2023-07-14T10:33:56.494Z,0.60
2023-07-14T10:36:27.239Z,1.00
2023-07-14T10:38:58.884Z,0.60
2023-07-14T10:41:26.456Z,0.70
2023-07-14T10:44:02.922Z,0.60
2023-07-14T10:46:33.725Z,0.60
2023-07-14T10:49:24.234Z,0.50
2023-07-14T10:52:04.963Z,0.70
2023-07-14T10:55:04.926Z,0.60
2023-07-14T10:57:38.772Z,0.60
2023-07-14T11:00:44.149Z,0.60
2023-07-14T11:03:17.758Z,0.90
2023-07-14T11:05:59.797Z,0.70
2023-07-14T11:08:29.275Z,0.70
2023-07-14T11:11:11.428Z,0.80
2023-07-14T11:14:17.091Z,0.80
2023-07-14T11:17:06.059Z,1.30
2023-07-14T11:19:54.008Z,0.60
2023-07-14T11:22:48.299Z,0.70
2023-07-14T11:25:25.718Z,0.70
2023-07-14T11:28:28.449Z,0.70
2023-07-14T11:30:56.639Z,1.40
2023-07-14T11:33:39.117Z,0.60
2023-07-14T11:36:14.485Z,0.60
2023-07-14T11:39:00.377Z,0.70
2023-07-14T11:41:27.682Z,0.70
2023-07-14T11:43:55.013Z,0.70
2023-07-14T11:46:22.601Z,0.90
2023-07-14T11:48:53.789Z,0.80
2023-07-14T11:51:22.665Z,0.70
2023-07-14T11:54:05.137Z,0.70
2023-07-14T11:56:36.821Z,0.80
2023-07-14T11:59:19.463Z,0.80
2023-07-14T12:01:49.002Z,0.70
2023-07-14T12:04:30.905Z,0.60
2023-07-14T12:07:12.903Z,0.70
2023-07-14T12:10:09.391Z,0.70
2023-07-14T12:12:36.755Z,0.50
2023-07-14T12:15:42.958Z,0.60
2023-07-14T12:18:27.356Z,0.50
2023-07-14T12:23:44.954Z,0.50
2023-07-14T12:26:15.765Z,0.80
2023-07-14T12:28:43.069Z,0.70
2023-07-14T12:31:15.492Z,0.60
2023-07-14T12:33:43.526Z,0.60
2023-07-14T12:36:18.561Z,0.60
2023-07-14T12:38:50.232Z,0.50
2023-07-14T12:41:21.087Z,0.50
2023-07-14T12:43:54.247Z,0.50
2023-07-14T12:46:29.470Z,0.50
2023-07-14T12:49:15.896Z,0.90
2023-07-14T12:51:43.195Z,0.90
2023-07-14T12:54:20.108Z,0.70
2023-07-14T12:56:47.417Z,0.50
2023-07-14T12:59:18.734Z,0.50
2023-07-14T13:01:47.372Z,0.70
2023-07-14T13:04:15.286Z,0.60
2023-07-14T13:06:42.972Z,0.60
2023-07-14T13:09:12.141Z,0.50
2023-07-14T13:11:40.398Z,0.50
2023-07-14T13:14:11.523Z,0.50
2023-07-14T13:16:39.259Z,0.50
2023-07-14T13:19:22.168Z,0.50
2023-07-14T13:21:49.475Z,0.60
2023-07-14T13:24:23.449Z,0.60
2023-07-14T13:29:22.133Z,0.60
2023-07-14T13:31:52.945Z,0.60
2023-07-14T13:34:27.611Z,0.60
2023-07-14T13:36:55.145Z,0.80
2023-07-14T13:39:25.669Z,0.50
2023-07-14T13:41:59.874Z,0.50
2023-07-14T13:44:47.072Z,0.60
2023-07-14T13:47:24.971Z,0.50
2023-07-14T13:49:53.518Z,0.70
2023-07-14T13:52:21.717Z,0.40
2023-07-14T13:54:54.272Z,0.40
2023-07-14T13:57:21.745Z,0.50
2023-07-14T13:59:49.007Z,0.30
2023-07-14T14:02:35.274Z,0.30
2023-07-14T14:05:06.821Z,0.40
2023-07-14T14:07:35.051Z,0.50
2023-07-14T14:10:02.766Z,0.40
2023-07-14T14:12:30.121Z,0.40
2023-07-14T14:14:57.535Z,0.30
2023-07-14T14:17:36.436Z,0.40
2023-07-14T14:20:05.402Z,0.40
2023-07-14T14:22:33.697Z,0.30
2023-07-14T14:25:01.658Z,0.30
2023-07-14T14:27:29.083Z,0.40
2023-07-14T14:29:56.374Z,0.30
2023-07-14T14:32:24.298Z,0.30
2023-07-14T14:34:52.593Z,0.30
2023-07-14T14:37:20.086Z,0.30
2023-07-14T14:39:47.360Z,0.20
2023-07-14T14:42:15.718Z,0.30
2023-07-14T14:44:43.174Z,0.30
2023-07-14T14:48:38.367Z,0.40
2023-07-14T14:51:09.772Z,0.20
2023-07-14T14:53:37.228Z,0.30
2023-07-14T14:56:07.236Z,0.20
2023-07-14T14:58:34.748Z,0.30
2023-07-14T15:01:33.105Z,0.30
2023-07-14T15:04:01.169Z,0.30
2023-07-14T15:06:28.610Z,0.30
2023-07-14T15:08:55.909Z,0.40
2023-07-14T15:11:24.014Z,0.30
2023-07-14T15:13:51.334Z,0.30
2023-07-14T15:16:19.041Z,0.20
2023-07-14T15:18:48.063Z,0.50
2023-07-14T15:21:22.079Z,0.30
2023-07-14T15:23:50.148Z,0.50
2023-07-14T15:26:25.013Z,0.30
2023-07-14T15:28:52.518Z,0.30
2023-07-14T15:31:20.022Z,0.30
2023-07-14T15:33:47.736Z,0.30
2023-07-14T15:36:15.769Z,0.30
2023-07-14T15:38:43.642Z,0.30
2023-07-14T15:41:17.143Z,0.40
2023-07-14T15:43:48.861Z,0.40
2023-07-14T15:46:16.771Z,0.30
2023-07-14T15:48:51.630Z,0.40
2023-07-14T15:51:30.364Z,0.30
2023-07-14T15:54:03.320Z,0.30
2023-07-14T15:56:32.903Z,0.60
2023-07-14T15:59:00.575Z,0.30
2023-07-14T16:01:30.817Z,0.40
2023-07-14T16:04:00.258Z,0.40
2023-07-14T16:06:27.638Z,0.30
2023-07-14T16:08:55.942Z,0.30
2023-07-14T16:11:37.906Z,0.30
2023-07-14T16:14:08.820Z,0.40
2023-07-14T16:16:36.437Z,0.40
2023-07-14T16:19:05.336Z,0.30
2023-07-14T16:21:37.129Z,0.30
2023-07-14T16:24:04.867Z,0.50
2023-07-14T16:26:32.352Z,0.50
2023-07-14T16:29:01.990Z,0.40
2023-07-14T16:31:29.403Z,0.40
2023-07-14T16:33:57.433Z,0.40
2023-07-14T16:36:29.810Z,0.30
2023-07-14T16:39:01.130Z,0.40
2023-07-14T16:41:28.668Z,0.30
2023-07-14T16:43:56.396Z,0.30
2023-07-14T16:46:29.291Z,0.30
2023-07-14T16:48:57.176Z,0.30
2023-07-14T16:51:26.781Z,0.30
2023-07-14T16:53:54.256Z,0.30
2023-07-14T16:56:21.518Z,0.30
2023-07-14T16:58:48.851Z,0.30
2023-07-14T17:01:18.589Z,0.30
2023-07-14T17:03:46.043Z,0.30
2023-07-14T17:06:15.087Z,0.20
2023-07-14T17:08:44.301Z,0.40
2023-07-14T17:11:11.850Z,0.30
2023-07-14T17:13:41.174Z,0.30
2023-07-14T17:16:08.799Z,0.40
2023-07-14T17:18:39.977Z,0.30
2023-07-14T17:21:09.248Z,0.30
2023-07-14T17:23:37.684Z,0.30
2023-07-14T17:26:06.204Z,0.40
2023-07-14T17:28:33.581Z,0.30
2023-07-14T17:31:02.389Z,0.30
2023-07-14T17:33:30.158Z,0.30
2023-07-14T17:36:02.308Z,0.30
2023-07-14T17:38:30.546Z,0.30
2023-07-14T17:40:57.970Z,0.30
2023-07-14T17:43:25.341Z,0.40
2023-07-14T17:45:52.770Z,0.50
2023-07-14T17:48:20.756Z,0.30
2023-07-14T17:50:49.866Z,0.30
2023-07-14T17:53:22.467Z,0.40
2023-07-14T17:55:50.397Z,0.30
2023-07-14T17:58:19.361Z,0.40
2023-07-14T18:00:46.784Z,0.30
2023-07-14T18:03:32.257Z,0.40
2023-07-14T18:06:00.191Z,0.50
2023-07-14T18:08:28.990Z,0.50
2023-07-14T18:11:01.974Z,0.40
2023-07-14T18:13:35.272Z,0.40
2023-07-14T18:16:02.768Z,0.40
2023-07-14T18:18:30.038Z,0.60
2023-07-14T18:21:01.994Z,0.50
2023-07-14T18:23:31.443Z,0.70
2023-07-14T18:25:58.758Z,1.90
2023-07-14T18:28:27.837Z,0.70
2023-07-14T18:30:55.226Z,0.50
2023-07-14T18:33:23.837Z,0.90
2023-07-14T18:35:57.041Z,0.50
2023-07-14T18:38:26.110Z,0.50
2023-07-14T18:40:55.979Z,0.70
2023-07-14T18:43:23.328Z,0.60
2023-07-14T18:45:51.182Z,0.70
2023-07-14T18:48:25.584Z,0.80
2023-07-14T18:50:54.592Z,0.70
2023-07-14T18:53:23.070Z,0.90
2023-07-14T18:55:50.774Z,0.90
2023-07-14T18:58:19.121Z,0.80
2023-07-14T19:00:48.023Z,1.00
2023-07-14T19:03:37.080Z,0.80
2023-07-14T19:06:05.773Z,0.80
2023-07-14T19:08:33.586Z,1.20
2023-07-14T19:11:02.215Z,1.30
2023-07-14T19:13:34.916Z,0.80
2023-07-14T19:16:02.384Z,1.10
2023-07-14T19:18:30.353Z,0.70
2023-07-14T19:21:12.899Z,0.70
2023-07-14T19:23:40.318Z,0.70
2023-07-14T19:26:08.396Z,0.50
2023-07-14T19:28:35.752Z,0.70
2023-07-14T19:31:03.130Z,0.70
2023-07-14T19:33:31.914Z,0.90
2023-07-14T19:36:00.205Z,0.50
2023-07-14T19:38:28.162Z,0.90
2023-07-14T19:40:57.553Z,0.70
2023-07-14T19:43:27.133Z,0.60
2023-07-14T19:45:58.761Z,0.60
2023-07-14T19:48:26.977Z,0.80
2023-07-14T19:50:56.094Z,0.40
2023-07-14T19:53:26.397Z,0.50
2023-07-14T19:55:54.716Z,0.50
2023-07-14T19:58:22.287Z,0.40
2023-07-14T20:00:50.592Z,0.50
2023-07-14T20:03:23.821Z,0.60
2023-07-14T20:05:51.528Z,0.60
2023-07-14T20:08:20.473Z,0.50
2023-07-14T20:10:49.068Z,0.60
2023-07-14T20:13:21.909Z,0.50
2023-07-14T20:15:50.863Z,0.60
2023-07-14T20:18:20.912Z,0.50
2023-07-14T20:20:49.163Z,0.70
2023-07-14T20:23:18.843Z,0.50
2023-07-14T20:25:47.243Z,0.50
2023-07-14T20:28:22.745Z,0.50
2023-07-14T20:31:01.716Z,0.40
2023-07-14T20:33:29.061Z,0.50
2023-07-14T20:35:57.323Z,0.40
2023-07-14T20:38:25.599Z,0.40
2023-07-14T20:40:57.165Z,0.40
2023-07-14T20:43:27.561Z,0.40
2023-07-14T20:45:55.029Z,0.60
2023-07-14T20:48:24.558Z,0.50
2023-07-14T20:50:56.835Z,0.40
2023-07-14T20:53:24.985Z,0.40
2023-07-14T20:55:53.387Z,0.50
2023-07-14T20:58:21.172Z,0.40
2023-07-14T21:00:49.235Z,0.50
2023-07-14T21:03:22.818Z,0.40
2023-07-14T21:05:51.562Z,0.50
2023-07-14T21:08:45.632Z,0.50
2023-07-14T21:11:15.790Z,0.50
2023-07-14T21:13:47.161Z,0.50
2023-07-14T21:16:15.055Z,1.20
2023-07-14T21:18:42.870Z,0.50
2023-07-14T21:21:33.595Z,0.40
2023-07-14T21:24:01.241Z,0.40
2023-07-14T21:26:30.998Z,0.50
2023-07-14T21:29:09.259Z,0.40
2023-07-14T21:31:38.176Z,0.60
2023-07-14T21:34:15.989Z,0.50
2023-07-14T21:36:44.109Z,0.60
2023-07-14T21:39:12.545Z,0.40
2023-07-14T21:41:40.555Z,0.50
2023-07-14T21:44:12.596Z,0.50
2023-07-14T21:46:41.070Z,0.50
2023-07-14T21:49:13.361Z,0.50
2023-07-14T21:51:40.956Z,0.60
2023-07-14T21:54:16.294Z,0.80
2023-07-14T21:56:45.550Z,0.60
2023-07-14T21:59:13.764Z,0.60
2023-07-14T22:01:42.503Z,0.70
2023-07-14T22:04:19.998Z,0.70
2023-07-14T22:06:51.145Z,0.80
2023-07-14T22:09:18.886Z,0.60
2023-07-14T22:11:46.615Z,0.60
2023-07-14T22:14:14.800Z,0.70
2023-07-14T22:16:42.726Z,0.70
2023-07-14T22:19:11.602Z,0.60
2023-07-14T22:21:38.920Z,0.80
2023-07-14T22:24:08.523Z,0.60
2023-07-14T22:26:36.035Z,1.40
2023-07-14T22:29:03.377Z,0.60
2023-07-14T22:31:30.813Z,0.70
2023-07-14T22:34:00.789Z,0.50
2023-07-14T22:36:28.283Z,0.60
2023-07-14T22:38:56.939Z,0.60
2023-07-14T22:41:25.236Z,0.60
2023-07-14T22:43:58.396Z,0.50
2023-07-14T22:46:26.362Z,0.70
2023-07-14T22:48:54.059Z,0.70
2023-07-14T22:51:28.280Z,0.50
2023-07-14T22:53:55.794Z,0.50
2023-07-14T22:56:23.249Z,0.50
2023-07-14T22:58:50.577Z,0.50
2023-07-14T23:01:34.219Z,0.50
2023-07-14T23:04:01.804Z,0.50
2023-07-14T23:06:29.453Z,0.50
2023-07-14T23:08:56.986Z,0.60
2023-07-14T23:11:35.894Z,0.50
2023-07-14T23:14:03.767Z,0.60
2023-07-14T23:16:31.414Z,0.50
2023-07-14T23:19:00.031Z,0.60
2023-07-14T23:21:32.081Z,0.60
2023-07-14T23:24:01.291Z,0.60
2023-07-14T23:26:29.865Z,0.60
2023-07-14T23:28:57.499Z,0.60
2023-07-14T23:31:33.614Z,0.50
2023-07-14T23:34:01.750Z,0.60
2023-07-14T23:36:30.171Z,0.60
2023-07-14T23:38:58.623Z,0.50
2023-07-14T23:41:27.981Z,0.60
2023-07-14T23:43:55.437Z,0.50
2023-07-14T23:46:23.419Z,0.50
2023-07-14T23:48:51.217Z,0.60
2023-07-14T23:51:24.434Z,0.50
2023-07-14T23:53:51.765Z,0.70
2023-07-14T23:56:19.385Z,0.50
2023-07-14T23:58:46.802Z,0.50
